createdAt,value
2022-11-17T00:00:37.611Z,11.00
2022-11-17T00:03:24.326Z,10.20
2022-11-17T00:06:11.137Z,12.10
2022-11-17T00:08:57.639Z,10.30
2022-11-17T00:12:04.213Z,10.60
2022-11-17T00:14:51.021Z,8.50
2022-11-17T00:17:37.833Z,8.80
2022-11-17T00:20:43.279Z,11.10
2022-11-17T00:23:48.474Z,9.10
2022-11-17T00:26:36.046Z,9.20
2022-11-17T00:29:22.862Z,7.60
2022-11-17T00:32:32.204Z,9.30
2022-11-17T00:35:19.005Z,9.70
2022-11-17T00:38:18.412Z,9.20
2022-11-17T00:41:05.530Z,7.00
2022-11-17T00:43:52.218Z,8.80
2022-11-17T00:46:39.471Z,9.70
2022-11-17T00:49:25.861Z,7.00
2022-11-17T00:52:12.978Z,8.40
2022-11-17T00:54:59.971Z,6.50
2022-11-17T00:57:46.811Z,8.50
2022-11-17T01:00:33.618Z,8.20
2022-11-17T01:03:20.529Z,8.40
2022-11-17T01:06:12.357Z,7.60
2022-11-17T01:09:02.858Z,8.60
2022-11-17T01:11:50.797Z,6.70
2022-11-17T01:14:37.499Z,8.70
2022-11-17T01:17:24.408Z,6.80
2022-11-17T01:20:11.320Z,7.00
2022-11-17T01:22:58.167Z,8.90
2022-11-17T01:25:45.049Z,9.50
2022-11-17T01:28:31.752Z,9.30
2022-11-17T01:31:20.915Z,8.80
2022-11-17T01:34:07.526Z,7.20
2022-11-17T01:37:12.870Z,8.00
2022-11-17T01:39:59.888Z,7.30
2022-11-17T01:42:46.903Z,9.10
2022-11-17T01:45:33.877Z,9.40
2022-11-17T01:48:20.830Z,5.80
2022-11-17T01:51:07.538Z,8.20
2022-11-17T01:53:54.175Z,6.70
2022-11-17T01:56:42.287Z,6.30
2022-11-17T01:59:33.503Z,9.10
2022-11-17T02:02:20.197Z,9.90
2022-11-17T02:05:22.058Z,8.30
2022-11-17T02:08:08.361Z,6.90
2022-11-17T02:10:55.235Z,8.30
2022-11-17T02:13:41.875Z,7.80
2022-11-17T02:16:28.385Z,6.00
2022-11-17T02:19:15.705Z,7.10
2022-11-17T02:22:30.753Z,6.80
2022-11-17T02:25:35.401Z,8.60
2022-11-17T02:28:25.228Z,7.30
2022-11-17T02:31:36.774Z,10.00
2022-11-17T02:34:39.049Z,8.10
2022-11-17T02:40:21.272Z,10.10
2022-11-17T02:43:30.201Z,10.20
2022-11-17T02:46:19.294Z,11.60
2022-11-17T02:49:10.114Z,8.00
2022-11-17T02:51:57.936Z,5.70
2022-11-17T02:54:44.611Z,7.50
2022-11-17T02:57:32.601Z,9.70
2022-11-17T03:00:19.256Z,7.60
2022-11-17T03:03:24.697Z,10.80
2022-11-17T03:06:30.149Z,10.50
2022-11-17T03:09:25.663Z,6.50
2022-11-17T03:12:16.154Z,9.70
2022-11-17T03:15:10.242Z,13.20
2022-11-17T03:18:14.972Z,11.40
2022-11-17T03:21:11.108Z,9.40
2022-11-17T03:24:18.234Z,9.80
2022-11-17T03:27:29.183Z,10.00
2022-11-17T03:30:15.873Z,8.80
2022-11-17T03:33:07.345Z,7.50
2022-11-17T03:38:54.019Z,9.80
2022-11-17T03:41:43.315Z,9.80
2022-11-17T03:44:30.519Z,9.40
2022-11-17T03:47:17.940Z,10.60
2022-11-17T03:50:09.479Z,11.60
2022-11-17T03:52:56.365Z,10.50
2022-11-17T03:55:52.804Z,13.90
2022-11-17T03:59:02.557Z,10.90
2022-11-17T04:01:49.417Z,13.20
2022-11-17T04:04:55.010Z,13.10
2022-11-17T04:07:43.302Z,11.70
2022-11-17T04:10:29.857Z,13.20
2022-11-17T04:13:35.457Z,14.00
2022-11-17T04:16:22.739Z,12.20
2022-11-17T04:19:09.441Z,10.10
2022-11-17T04:21:56.360Z,11.70
2022-11-17T04:24:42.968Z,14.10
2022-11-17T04:27:48.857Z,8.70
2022-11-17T04:30:35.728Z,9.70
2022-11-17T04:33:22.465Z,11.30
2022-11-17T04:36:10.146Z,10.90
2022-11-17T04:38:57.999Z,10.60
2022-11-17T04:42:03.905Z,11.30
2022-11-17T04:44:50.445Z,10.50
2022-11-17T04:47:36.948Z,12.70
2022-11-17T04:50:23.575Z,12.80
2022-11-17T04:53:10.386Z,12.30
2022-11-17T04:56:01.204Z,13.00
2022-11-17T04:58:47.737Z,6.10
2022-11-17T05:01:34.094Z,9.90
2022-11-17T05:04:40.154Z,13.80
2022-11-17T05:07:28.287Z,10.50
2022-11-17T05:10:15.428Z,11.90
2022-11-17T05:13:20.454Z,12.50
2022-11-17T05:16:26.232Z,11.60
2022-11-17T05:19:15.577Z,8.90
2022-11-17T05:22:02.182Z,10.40
2022-11-17T05:24:48.788Z,13.20
2022-11-17T05:27:36.113Z,8.80
2022-11-17T05:30:22.718Z,9.10
2022-11-17T05:33:09.537Z,9.80
2022-11-17T05:35:55.930Z,9.40
2022-11-17T05:38:42.638Z,8.70
2022-11-17T05:41:29.120Z,9.80
2022-11-17T05:44:15.441Z,13.20
2022-11-17T05:47:02.361Z,11.60
2022-11-17T05:49:49.362Z,7.80
2022-11-17T05:52:36.489Z,9.40
2022-11-17T05:55:22.994Z,8.60
2022-11-17T05:58:12.974Z,9.50
2022-11-17T06:00:59.807Z,11.80
2022-11-17T06:03:48.938Z,8.40
2022-11-17T06:06:36.534Z,10.60
2022-11-17T06:09:22.887Z,9.90
2022-11-17T06:12:12.145Z,10.00
2022-11-17T06:14:58.655Z,9.20
2022-11-17T06:17:49.351Z,10.60
2022-11-17T06:20:38.320Z,10.30
2022-11-17T06:23:26.967Z,12.20
2022-11-17T06:26:13.491Z,11.30
2022-11-17T06:29:00.282Z,11.00
2022-11-17T06:31:46.834Z,9.70
2022-11-17T06:34:35.073Z,11.90
2022-11-17T06:37:21.532Z,9.20
2022-11-17T06:40:10.187Z,11.90
2022-11-17T06:43:09.770Z,12.70
2022-11-17T06:45:56.613Z,8.80
2022-11-17T06:48:43.524Z,11.80
2022-11-17T06:51:30.539Z,10.60
2022-11-17T06:54:17.149Z,9.50
2022-11-17T06:57:04.152Z,9.80
2022-11-17T06:59:52.721Z,8.80
2022-11-17T07:02:39.415Z,11.40
2022-11-17T07:05:27.359Z,9.60
2022-11-17T07:08:14.705Z,10.10
2022-11-17T07:11:07.015Z,8.30
2022-11-17T07:13:53.924Z,9.60
2022-11-17T07:16:41.864Z,8.00
2022-11-17T07:19:28.472Z,8.60
2022-11-17T07:22:15.175Z,8.50
2022-11-17T07:25:01.783Z,12.00
2022-11-17T07:27:48.999Z,7.90
2022-11-17T07:30:36.531Z,9.60
2022-11-17T07:33:23.550Z,8.90
2022-11-17T07:36:11.307Z,7.60
2022-11-17T07:38:57.788Z,7.50
2022-11-17T07:41:45.207Z,9.70
2022-11-17T07:44:31.610Z,6.40
2022-11-17T07:47:18.008Z,7.00
2022-11-17T07:50:05.334Z,7.50
2022-11-17T07:52:52.875Z,4.80
2022-11-17T07:55:39.566Z,5.80
2022-11-17T07:58:26.280Z,7.30
2022-11-17T08:01:17.022Z,5.50
2022-11-17T08:04:03.755Z,6.20
2022-11-17T08:06:50.325Z,8.10
2022-11-17T08:09:37.197Z,5.00
2022-11-17T08:12:23.957Z,7.00
2022-11-17T08:15:10.824Z,6.90
2022-11-17T08:17:59.167Z,7.60
2022-11-17T08:20:45.767Z,7.60
2022-11-17T08:23:32.671Z,7.80
2022-11-17T08:26:20.965Z,7.10
2022-11-17T08:29:07.540Z,5.80
2022-11-17T08:31:54.246Z,5.70
2022-11-17T08:34:41.158Z,4.90
2022-11-17T08:37:28.072Z,4.50
2022-11-17T08:40:15.390Z,3.40
2022-11-17T08:43:02.404Z,6.30
2022-11-17T08:45:49.116Z,6.00
2022-11-17T08:48:36.455Z,5.60
2022-11-17T08:51:23.763Z,4.70
2022-11-17T08:54:12.516Z,7.10
2022-11-17T08:56:59.667Z,4.10
2022-11-17T08:59:46.209Z,6.10
2022-11-17T09:02:33.325Z,6.40
2022-11-17T09:05:21.194Z,4.50
2022-11-17T09:08:38.006Z,3.10
2022-11-17T09:11:14.891Z,5.70
2022-11-17T09:14:01.798Z,5.90
2022-11-17T09:16:48.809Z,5.80
2022-11-17T09:19:35.517Z,5.20
2022-11-17T09:22:22.127Z,3.40
2022-11-17T09:25:13.374Z,4.70
2022-11-17T09:28:01.688Z,4.70
2022-11-17T09:30:48.351Z,5.70
2022-11-17T09:33:34.795Z,6.70
2022-11-17T09:36:21.500Z,5.20
2022-11-17T09:39:08.520Z,4.40
2022-11-17T09:41:55.633Z,5.10
2022-11-17T09:44:44.190Z,6.80
2022-11-17T09:48:02.381Z,5.70
2022-11-17T09:50:59.386Z,8.20
2022-11-17T09:53:52.952Z,6.40
2022-11-17T09:56:39.624Z,6.20
2022-11-17T09:59:27.290Z,7.10
2022-11-17T10:02:13.734Z,4.70
2022-11-17T10:05:00.566Z,9.00
2022-11-17T10:07:49.660Z,5.10
2022-11-17T10:10:40.195Z,7.30
2022-11-17T10:13:34.312Z,7.50
2022-11-17T10:16:21.160Z,8.10
2022-11-17T10:19:26.303Z,6.40
2022-11-17T10:22:24.075Z,7.50
2022-11-17T10:25:23.780Z,4.70
2022-11-17T10:28:25.388Z,5.30
2022-11-17T10:31:17.486Z,5.00
2022-11-17T10:34:04.327Z,5.70
2022-11-17T10:36:50.803Z,7.40
2022-11-17T10:39:39.446Z,6.80
2022-11-17T10:42:29.929Z,5.80
2022-11-17T10:45:16.849Z,7.30
2022-11-17T10:48:34.183Z,5.00
2022-11-17T10:51:20.785Z,4.60
2022-11-17T10:54:16.308Z,4.70
2022-11-17T10:57:05.873Z,3.80
2022-11-17T10:59:57.147Z,5.40
2022-11-17T11:02:43.991Z,4.90
2022-11-17T11:06:16.173Z,6.40
2022-11-17T11:09:17.012Z,3.50
2022-11-17T11:12:03.921Z,3.20
2022-11-17T11:14:55.134Z,4.10
2022-11-17T11:17:41.946Z,3.00
2022-11-17T11:21:13.072Z,3.60
2022-11-17T11:24:10.558Z,3.60
2022-11-17T11:27:35.870Z,4.30
2022-11-17T11:33:41.341Z,3.90
2022-11-17T11:36:44.799Z,3.40
2022-11-17T11:39:47.114Z,3.30
2022-11-17T11:42:54.048Z,3.60
2022-11-17T11:46:15.108Z,2.60
2022-11-17T11:49:10.450Z,3.00
2022-11-17T11:51:57.332Z,3.90
2022-11-17T11:55:05.952Z,4.00
2022-11-17T11:57:56.510Z,3.70
2022-11-17T12:00:43.055Z,3.60
2022-11-17T12:03:35.065Z,4.30
2022-11-17T12:07:03.405Z,3.30
2022-11-17T12:10:03.136Z,3.90
2022-11-17T12:12:49.594Z,4.10
2022-11-17T12:15:36.414Z,3.30
2022-11-17T12:18:23.412Z,3.70
2022-11-17T12:21:13.804Z,4.90
2022-11-17T12:24:16.514Z,3.60
2022-11-17T12:27:35.274Z,3.60
2022-11-17T12:30:31.070Z,3.70
2022-11-17T12:33:17.569Z,4.40
2022-11-17T12:36:31.820Z,2.90
2022-11-17T12:39:56.962Z,5.20
2022-11-17T12:43:15.910Z,5.40
2022-11-17T12:46:21.756Z,5.50
2022-11-17T12:49:16.917Z,5.70
2022-11-17T12:52:04.304Z,5.10
2022-11-17T12:54:55.689Z,4.60
2022-11-17T12:57:42.318Z,4.20
2022-11-17T13:00:29.734Z,2.80
2022-11-17T13:03:16.752Z,3.60
2022-11-17T13:06:34.263Z,5.40
2022-11-17T13:09:18.120Z,4.50
2022-11-17T13:12:08.208Z,5.40
2022-11-17T13:14:59.009Z,2.10
2022-11-17T13:17:45.721Z,3.90
2022-11-17T13:20:34.169Z,5.30
2022-11-17T13:23:23.252Z,4.30
2022-11-17T13:26:16.212Z,2.30
2022-11-17T13:29:06.275Z,7.60
2022-11-17T13:32:12.033Z,5.60
2022-11-17T13:35:00.592Z,4.70
2022-11-17T13:38:21.088Z,5.40
2022-11-17T13:41:07.994Z,8.50
2022-11-17T13:43:54.665Z,3.90
2022-11-17T13:46:41.820Z,5.40
2022-11-17T13:49:37.776Z,5.20
2022-11-17T13:52:40.577Z,3.20
2022-11-17T13:55:28.979Z,5.70
2022-11-17T13:58:26.455Z,4.20
2022-11-17T14:01:14.418Z,5.10
2022-11-17T14:04:19.982Z,4.20
2022-11-17T14:07:10.039Z,6.50
2022-11-17T14:10:15.562Z,3.90
2022-11-17T14:13:02.268Z,10.70
2022-11-17T14:15:54.574Z,4.10
2022-11-17T14:18:42.137Z,5.20
2022-11-17T14:21:29.356Z,7.50
2022-11-17T14:24:15.975Z,6.40
2022-11-17T14:27:05.187Z,4.00
2022-11-17T14:29:51.940Z,6.40
2022-11-17T14:32:40.389Z,5.20
2022-11-17T14:35:27.096Z,5.60
2022-11-17T14:38:15.878Z,5.10
2022-11-17T14:41:02.869Z,2.70
2022-11-17T14:43:50.599Z,5.90
2022-11-17T14:46:37.204Z,5.00
2022-11-17T14:49:24.120Z,6.80
2022-11-17T14:52:10.756Z,6.70
2022-11-17T14:54:59.194Z,6.00
2022-11-17T14:57:45.679Z,8.10
2022-11-17T15:00:32.596Z,6.80
2022-11-17T15:03:19.231Z,7.20
2022-11-17T15:06:09.592Z,8.70
2022-11-17T15:08:58.522Z,8.20
2022-11-17T15:11:45.054Z,8.40
2022-11-17T15:14:31.763Z,5.30
2022-11-17T15:17:18.468Z,7.70
2022-11-17T15:20:06.813Z,4.20
2022-11-17T15:22:53.113Z,6.30
2022-11-17T15:25:39.926Z,3.50
2022-11-17T15:28:30.509Z,6.10
2022-11-17T15:31:22.545Z,5.90
2022-11-17T15:34:18.606Z,7.40
2022-11-17T15:37:06.935Z,6.40
2022-11-17T15:39:54.045Z,5.90
2022-11-17T15:42:40.344Z,5.50
2022-11-17T15:45:28.080Z,5.30
2022-11-17T15:48:18.615Z,6.50
2022-11-17T15:51:06.464Z,9.40
2022-11-17T15:53:53.935Z,9.20
2022-11-17T15:56:40.545Z,10.80
2022-11-17T15:59:27.351Z,6.10
2022-11-17T16:02:14.982Z,9.80
2022-11-17T16:05:02.310Z,9.90
2022-11-17T16:07:49.120Z,6.40
2022-11-17T16:10:36.036Z,6.00
2022-11-17T16:13:22.594Z,10.20
2022-11-17T16:16:12.463Z,6.30
2022-11-17T16:18:59.127Z,11.80
2022-11-17T16:21:45.546Z,10.70
2022-11-17T16:24:32.232Z,8.40
2022-11-17T16:27:18.940Z,10.20
2022-11-17T16:30:06.370Z,5.50
2022-11-17T16:32:53.173Z,9.70
2022-11-17T16:35:40.664Z,7.20
2022-11-17T16:38:27.411Z,5.50
2022-11-17T16:41:14.121Z,9.30
2022-11-17T16:44:01.205Z,10.30
2022-11-17T16:46:49.955Z,10.60
2022-11-17T16:49:37.187Z,11.10
2022-11-17T16:52:23.715Z,9.40
2022-11-17T16:55:10.222Z,5.40
2022-11-17T16:57:57.030Z,5.40
2022-11-17T17:00:43.638Z,5.60
2022-11-17T17:03:30.335Z,9.30
2022-11-17T17:06:17.799Z,10.80
2022-11-17T17:09:05.806Z,12.40
2022-11-17T17:11:52.432Z,9.30
2022-11-17T17:14:39.426Z,10.00
2022-11-17T17:17:26.234Z,13.40
2022-11-17T17:20:12.844Z,8.80
2022-11-17T17:23:03.095Z,11.00
2022-11-17T17:26:02.746Z,9.50
2022-11-17T17:28:51.236Z,10.00
2022-11-17T17:31:39.440Z,12.60
2022-11-17T17:34:26.147Z,8.40
2022-11-17T17:37:13.166Z,8.00
2022-11-17T17:39:59.977Z,12.40
2022-11-17T17:42:46.784Z,12.60
2022-11-17T17:45:33.836Z,7.70
2022-11-17T17:48:20.405Z,6.80
2022-11-17T17:51:08.650Z,9.40
2022-11-17T17:53:56.219Z,8.10
2022-11-17T17:56:44.218Z,7.80
2022-11-17T17:59:31.194Z,5.90
2022-11-17T18:02:18.040Z,5.40
2022-11-17T18:05:04.651Z,6.50
2022-11-17T18:07:50.954Z,6.10
2022-11-17T18:10:37.759Z,8.20
2022-11-17T18:13:24.671Z,7.80
2022-11-17T18:16:13.433Z,7.60
2022-11-17T18:19:02.213Z,8.30
2022-11-17T18:21:48.994Z,3.90
2022-11-17T18:24:35.704Z,4.90
2022-11-17T18:27:22.001Z,6.20
2022-11-17T18:30:09.938Z,7.50
2022-11-17T18:33:02.687Z,9.50
2022-11-17T18:35:49.909Z,7.10
2022-11-17T18:38:37.416Z,7.10
2022-11-17T18:41:24.501Z,6.40
2022-11-17T18:44:12.698Z,6.40
2022-11-17T18:47:02.803Z,6.40
2022-11-17T18:49:49.902Z,7.80
2022-11-17T18:52:37.145Z,5.90
2022-11-17T18:55:23.943Z,5.10
2022-11-17T18:58:10.438Z,7.80
2022-11-17T19:00:57.661Z,4.20
2022-11-17T19:03:45.823Z,6.90
2022-11-17T19:06:32.813Z,6.50
2022-11-17T19:09:19.659Z,8.90
2022-11-17T19:12:08.930Z,10.50
2022-11-17T19:14:55.192Z,6.80
2022-11-17T19:17:42.311Z,6.60
2022-11-17T19:20:28.867Z,9.60
2022-11-17T19:23:15.418Z,9.20
2022-11-17T19:26:05.934Z,6.50
2022-11-17T19:28:59.895Z,9.00
2022-11-17T19:31:47.612Z,7.50
2022-11-17T19:34:34.230Z,5.70
2022-11-17T19:37:20.943Z,7.40
2022-11-17T19:40:08.638Z,10.90
2022-11-17T19:42:55.163Z,4.20
2022-11-17T19:45:41.783Z,4.80
2022-11-17T19:48:29.310Z,8.20
2022-11-17T19:51:24.008Z,7.10
2022-11-17T19:54:11.024Z,7.40
2022-11-17T19:56:57.832Z,9.60
2022-11-17T19:59:44.534Z,7.20
2022-11-17T20:02:31.453Z,6.40
2022-11-17T20:05:18.398Z,13.60
2022-11-17T20:08:05.690Z,11.40
2022-11-17T20:10:52.195Z,10.10
2022-11-17T20:13:38.899Z,8.10
2022-11-17T20:16:26.848Z,13.70
2022-11-17T20:19:14.148Z,7.90
2022-11-17T20:22:01.588Z,7.90
2022-11-17T20:24:48.400Z,4.10
2022-11-17T20:27:35.310Z,8.50
2022-11-17T20:30:22.286Z,6.50
2022-11-17T20:33:09.135Z,9.50
2022-11-17T20:35:59.635Z,7.00
2022-11-17T20:38:56.996Z,6.30
2022-11-17T20:41:43.508Z,4.60
2022-11-17T20:44:31.431Z,5.40
2022-11-17T20:47:18.037Z,7.30
2022-11-17T20:50:05.463Z,8.50
2022-11-17T20:52:51.865Z,6.30
2022-11-17T20:55:38.753Z,8.40
2022-11-17T20:58:26.111Z,10.00
2022-11-17T21:01:17.428Z,7.90
2022-11-17T21:04:05.047Z,2.70
2022-11-17T21:06:51.696Z,7.80
2022-11-17T21:09:38.358Z,7.10
2022-11-17T21:12:24.868Z,8.20
2022-11-17T21:15:12.579Z,12.90
2022-11-17T21:18:18.353Z,7.10
2022-11-17T21:21:09.138Z,5.60
2022-11-17T21:23:56.278Z,7.70
2022-11-17T21:26:43.192Z,5.90
2022-11-17T21:29:29.802Z,6.40
2022-11-17T21:32:16.809Z,9.10
2022-11-17T21:35:03.819Z,11.00
2022-11-17T21:37:50.422Z,10.60
2022-11-17T21:40:37.338Z,10.90
2022-11-17T21:43:23.850Z,10.50
2022-11-17T21:46:12.856Z,8.60
2022-11-17T21:49:00.134Z,11.50
2022-11-17T21:51:46.851Z,13.50
2022-11-17T21:54:33.641Z,13.00
2022-11-17T21:57:20.339Z,13.80
2022-11-17T22:00:08.291Z,14.00
2022-11-17T22:02:55.102Z,11.60
2022-11-17T22:05:41.555Z,12.80
2022-11-17T22:08:28.113Z,8.60
2022-11-17T22:11:16.540Z,11.70
2022-11-17T22:14:32.862Z,9.70
2022-11-17T22:17:19.362Z,10.20
2022-11-17T22:20:07.295Z,11.60
2022-11-17T22:22:54.346Z,12.00
2022-11-17T22:25:45.539Z,11.90
2022-11-17T22:28:32.451Z,5.30
2022-11-17T22:31:18.982Z,7.50
2022-11-17T22:34:05.444Z,9.60
2022-11-17T22:36:52.364Z,10.30
2022-11-17T22:39:39.038Z,12.10
2022-11-17T22:42:25.776Z,11.40
2022-11-17T22:45:12.527Z,12.50
2022-11-17T22:47:59.701Z,8.30
2022-11-17T22:50:46.515Z,11.70
2022-11-17T22:53:33.951Z,13.40
2022-11-17T22:56:20.559Z,11.80
2022-11-17T22:59:07.462Z,12.20
2022-11-17T23:01:54.298Z,10.10
2022-11-17T23:04:41.289Z,11.80
2022-11-17T23:07:27.835Z,7.00
2022-11-17T23:10:15.011Z,12.40
2022-11-17T23:13:01.607Z,11.50
2022-11-17T23:15:48.260Z,10.00
2022-11-17T23:18:36.668Z,9.20
2022-11-17T23:21:23.478Z,9.30
2022-11-17T23:24:12.721Z,9.50
2022-11-17T23:26:59.662Z,6.60
2022-11-17T23:29:46.373Z,9.40
2022-11-17T23:32:33.486Z,7.10
2022-11-17T23:35:20.033Z,9.80
2022-11-17T23:38:06.508Z,9.30
2022-11-17T23:40:55.193Z,7.70
2022-11-17T23:43:41.860Z,10.10
2022-11-17T23:46:28.769Z,11.20
2022-11-17T23:49:15.735Z,6.80
2022-11-17T23:52:02.798Z,6.80
2022-11-17T23:54:49.509Z,8.50
2022-11-17T23:57:36.015Z,6.70
